sensor_id;sensor_type;location;lat;lon;timestamp;pressure;altitude;pressure_sealevel;temperature;humidity
16190;BME280;41754;51.498;7.540;2023-06-05T00:01:35;100872.19;;;12.92;65.35
16190;BME280;41754;51.498;7.540;2023-06-05T00:04:03;100868.78;;;12.90;65.76
16190;BME280;41754;51.498;7.540;2023-06-05T00:06:32;100874.28;;;12.87;65.81
16190;BME280;41754;51.498;7.540;2023-06-05T00:09:00;100880.72;;;12.83;66.28
16190;BME280;41754;51.498;7.540;2023-06-05T00:11:27;100879.13;;;12.80;66.72
16190;BME280;41754;51.498;7.540;2023-06-05T00:13:57;100877.53;;;12.78;66.69
16190;BME280;41754;51.498;7.540;2023-06-05T00:16:24;100883.09;;;12.73;67.27
16190;BME280;41754;51.498;7.540;2023-06-05T00:18:53;100876.22;;;12.71;67.24
16190;BME280;41754;51.498;7.540;2023-06-05T00:21:21;100883.91;;;12.61;67.77
16190;BME280;41754;51.498;7.540;2023-06-05T00:23:49;100886.81;;;12.56;67.92
16190;BME280;41754;51.498;7.540;2023-06-05T00:26:17;100887.97;;;12.52;68.03
16190;BME280;41754;51.498;7.540;2023-06-05T00:28:46;100895.16;;;12.50;68.36
16190;BME280;41754;51.498;7.540;2023-06-05T00:31:15;100877.81;;;12.46;68.42
16190;BME280;41754;51.498;7.540;2023-06-05T00:33:45;100880.59;;;12.30;69.10
16190;BME280;41754;51.498;7.540;2023-06-05T00:36:13;100884.16;;;12.29;69.36
16190;BME280;41754;51.498;7.540;2023-06-05T00:38:41;100885.59;;;12.20;69.65
16190;BME280;41754;51.498;7.540;2023-06-05T00:41:08;100878.50;;;12.21;69.66
16190;BME280;41754;51.498;7.540;2023-06-05T00:43:38;100875.22;;;12.17;69.65
16190;BME280;41754;51.498;7.540;2023-06-05T00:46:06;100878.22;;;12.11;70.27
16190;BME280;41754;51.498;7.540;2023-06-05T00:48:36;100879.94;;;12.12;69.53
16190;BME280;41754;51.498;7.540;2023-06-05T00:51:04;100879.28;;;12.09;69.98
16190;BME280;41754;51.498;7.540;2023-06-05T00:53:33;100871.47;;;12.07;69.86
16190;BME280;41754;51.498;7.540;2023-06-05T00:56:02;100880.72;;;12.00;70.14
16190;BME280;41754;51.498;7.540;2023-06-05T00:58:30;100875.53;;;11.98;70.28
16190;BME280;41754;51.498;7.540;2023-06-05T01:01:00;100878.25;;;11.97;70.45
16190;BME280;41754;51.498;7.540;2023-06-05T01:03:30;100881.22;;;11.91;70.52
16190;BME280;41754;51.498;7.540;2023-06-05T01:06:02;100886.50;;;11.91;70.63
16190;BME280;41754;51.498;7.540;2023-06-05T01:08:31;100879.81;;;11.85;70.71
16190;BME280;41754;51.498;7.540;2023-06-05T01:11:13;100885.00;;;11.86;70.53
16190;BME280;41754;51.498;7.540;2023-06-05T01:13:55;100878.38;;;11.79;70.81
16190;BME280;41754;51.498;7.540;2023-06-05T01:16:24;100875.38;;;11.71;71.14
16190;BME280;41754;51.498;7.540;2023-06-05T01:18:59;100875.38;;;11.71;71.25
16190;BME280;41754;51.498;7.540;2023-06-05T01:21:31;100878.31;;;11.66;71.10
16190;BME280;41754;51.498;7.540;2023-06-05T01:24:00;100875.94;;;11.62;71.10
16190;BME280;41754;51.498;7.540;2023-06-05T01:26:33;100876.31;;;11.56;71.50
16190;BME280;41754;51.498;7.540;2023-06-05T01:29:05;100873.56;;;11.57;71.61
16190;BME280;41754;51.498;7.540;2023-06-05T01:31:35;100870.28;;;11.54;71.74
16190;BME280;41754;51.498;7.540;2023-06-05T01:34:08;100871.59;;;11.46;71.61
16190;BME280;41754;51.498;7.540;2023-06-05T01:36:40;100872.00;;;11.55;71.43
16190;BME280;41754;51.498;7.540;2023-06-05T01:39:10;100870.47;;;11.50;71.19
16190;BME280;41754;51.498;7.540;2023-06-05T01:41:39;100873.44;;;11.44;71.24
16190;BME280;41754;51.498;7.540;2023-06-05T01:44:09;100876.88;;;11.46;70.98
16190;BME280;41754;51.498;7.540;2023-06-05T01:46:40;100874.97;;;11.48;71.40
16190;BME280;41754;51.498;7.540;2023-06-05T01:49:09;100879.50;;;11.46;71.20
16190;BME280;41754;51.498;7.540;2023-06-05T01:51:37;100882.50;;;11.40;71.26
16190;BME280;41754;51.498;7.540;2023-06-05T01:54:05;100868.56;;;11.38;71.19
16190;BME280;41754;51.498;7.540;2023-06-05T01:56:35;100868.16;;;11.30;71.56
16190;BME280;41754;51.498;7.540;2023-06-05T01:59:04;100870.97;;;11.27;71.62
16190;BME280;41754;51.498;7.540;2023-06-05T02:01:34;100862.50;;;11.22;71.63
16190;BME280;41754;51.498;7.540;2023-06-05T02:04:02;100872.53;;;11.15;72.11
16190;BME280;41754;51.498;7.540;2023-06-05T02:06:33;100863.22;;;11.09;72.50
16190;BME280;41754;51.498;7.540;2023-06-05T02:09:08;100863.97;;;11.11;72.24
16190;BME280;41754;51.498;7.540;2023-06-05T02:11:38;100860.59;;;11.09;72.55
16190;BME280;41754;51.498;7.540;2023-06-05T02:14:09;100864.50;;;11.02;73.29
16190;BME280;41754;51.498;7.540;2023-06-05T02:16:40;100861.88;;;11.02;73.13
16190;BME280;41754;51.498;7.540;2023-06-05T02:19:08;100860.44;;;10.97;73.42
16190;BME280;41754;51.498;7.540;2023-06-05T02:21:37;100857.16;;;10.93;73.47
16190;BME280;41754;51.498;7.540;2023-06-05T02:24:05;100857.31;;;10.90;73.66
16190;BME280;41754;51.498;7.540;2023-06-05T02:26:34;100862.94;;;10.84;73.81
16190;BME280;41754;51.498;7.540;2023-06-05T02:29:03;100856.00;;;10.83;74.15
16190;BME280;41754;51.498;7.540;2023-06-05T02:31:32;100859.72;;;10.79;74.21
16190;BME280;41754;51.498;7.540;2023-06-05T02:34:00;100865.31;;;10.72;74.27
16190;BME280;41754;51.498;7.540;2023-06-05T02:36:28;100857.72;;;10.68;74.80
16190;BME280;41754;51.498;7.540;2023-06-05T02:39:00;100855.16;;;10.66;74.87
16190;BME280;41754;51.498;7.540;2023-06-05T02:41:28;100853.63;;;10.62;75.19
16190;BME280;41754;51.498;7.540;2023-06-05T02:43:56;100859.03;;;10.59;75.14
16190;BME280;41754;51.498;7.540;2023-06-05T02:46:27;100853.41;;;10.51;75.48
16190;BME280;41754;51.498;7.540;2023-06-05T02:48:55;100849.97;;;10.49;75.70
16190;BME280;41754;51.498;7.540;2023-06-05T02:51:25;100852.81;;;10.46;75.93
16190;BME280;41754;51.498;7.540;2023-06-05T02:53:53;100847.88;;;10.39;76.08
16190;BME280;41754;51.498;7.540;2023-06-05T02:56:21;100849.38;;;10.44;76.00
16190;BME280;41754;51.498;7.540;2023-06-05T02:58:53;100848.78;;;10.38;76.24
16190;BME280;41754;51.498;7.540;2023-06-05T03:01:23;100849.16;;;10.32;76.39
16190;BME280;41754;51.498;7.540;2023-06-05T03:03:53;100848.41;;;10.29;76.67
16190;BME280;41754;51.498;7.540;2023-06-05T03:06:23;100838.84;;;10.28;76.55
16190;BME280;41754;51.498;7.540;2023-06-05T03:08:55;100845.47;;;10.19;77.02
16190;BME280;41754;51.498;7.540;2023-06-05T03:11:23;100845.56;;;10.17;77.12
16190;BME280;41754;51.498;7.540;2023-06-05T03:13:53;100833.31;;;10.16;77.03
16190;BME280;41754;51.498;7.540;2023-06-05T03:16:23;100846.03;;;10.08;77.48
16190;BME280;41754;51.498;7.540;2023-06-05T03:19:02;100835.59;;;10.07;77.59
16190;BME280;41754;51.498;7.540;2023-06-05T03:21:30;100838.47;;;10.02;77.87
16190;BME280;41754;51.498;7.540;2023-06-05T03:23:58;100836.63;;;10.04;77.63
16190;BME280;41754;51.498;7.540;2023-06-05T03:26:27;100839.09;;;10.07;77.45
16190;BME280;41754;51.498;7.540;2023-06-05T03:28:55;100840.34;;;10.00;77.60
16190;BME280;41754;51.498;7.540;2023-06-05T03:31:23;100834.84;;;10.05;77.27
16190;BME280;41754;51.498;7.540;2023-06-05T03:33:51;100832.38;;;10.01;77.22
16190;BME280;41754;51.498;7.540;2023-06-05T03:36:20;100836.13;;;9.97;76.83
16190;BME280;41754;51.498;7.540;2023-06-05T03:38:50;100836.34;;;9.93;76.84
16190;BME280;41754;51.498;7.540;2023-06-05T03:41:18;100842.44;;;9.93;76.89
16190;BME280;41754;51.498;7.540;2023-06-05T03:43:46;100840.19;;;9.87;77.11
16190;BME280;41754;51.498;7.540;2023-06-05T03:46:16;100834.56;;;9.93;77.26
16190;BME280;41754;51.498;7.540;2023-06-05T03:48:47;100842.63;;;9.90;77.83
16190;BME280;41754;51.498;7.540;2023-06-05T03:51:16;100846.19;;;9.89;77.81
16190;BME280;41754;51.498;7.540;2023-06-05T03:53:46;100857.00;;;10.00;77.91
16190;BME280;41754;51.498;7.540;2023-06-05T03:56:22;100848.31;;;9.98;77.89
16190;BME280;41754;51.498;7.540;2023-06-05T03:58:59;100848.91;;;10.03;77.65
16190;BME280;41754;51.498;7.540;2023-06-05T04:01:37;100844.94;;;9.96;77.48
16190;BME280;41754;51.498;7.540;2023-06-05T04:04:05;100852.31;;;10.06;77.49
16190;BME280;41754;51.498;7.540;2023-06-05T04:06:35;100853.25;;;10.05;77.42
16190;BME280;41754;51.498;7.540;2023-06-05T04:09:06;100854.00;;;10.07;77.13
16190;BME280;41754;51.498;7.540;2023-06-05T04:11:40;100852.75;;;10.14;76.63
16190;BME280;41754;51.498;7.540;2023-06-05T04:14:09;100853.53;;;10.16;76.81
16190;BME280;41754;51.498;7.540;2023-06-05T04:16:38;100846.06;;;10.24;76.78
16190;BME280;41754;51.498;7.540;2023-06-05T04:19:09;100847.16;;;10.20;76.92
16190;BME280;41754;51.498;7.540;2023-06-05T04:21:39;100844.34;;;10.23;77.00
16190;BME280;41754;51.498;7.540;2023-06-05T04:24:09;100853.59;;;10.30;76.97
16190;BME280;41754;51.498;7.540;2023-06-05T04:26:39;100849.75;;;10.37;76.80
16190;BME280;41754;51.498;7.540;2023-06-05T04:29:08;100849.66;;;10.39;76.29
16190;BME280;41754;51.498;7.540;2023-06-05T04:31:41;100850.75;;;10.51;76.22
16190;BME280;41754;51.498;7.540;2023-06-05T04:34:09;100848.53;;;10.59;75.71
16190;BME280;41754;51.498;7.540;2023-06-05T04:36:40;100850.91;;;10.64;75.59
16190;BME280;41754;51.498;7.540;2023-06-05T04:39:10;100854.13;;;10.69;75.10
16190;BME280;41754;51.498;7.540;2023-06-05T04:41:42;100857.78;;;10.66;74.74
16190;BME280;41754;51.498;7.540;2023-06-05T04:44:15;100850.31;;;10.74;74.45
16190;BME280;41754;51.498;7.540;2023-06-05T04:46:45;100848.09;;;10.83;73.92
16190;BME280;41754;51.498;7.540;2023-06-05T04:49:14;100847.59;;;10.76;74.14
16190;BME280;41754;51.498;7.540;2023-06-05T04:51:43;100853.94;;;10.88;73.90
16190;BME280;41754;51.498;7.540;2023-06-05T04:54:13;100850.34;;;10.89;73.60
16190;BME280;41754;51.498;7.540;2023-06-05T04:56:41;100852.81;;;10.92;73.31
16190;BME280;41754;51.498;7.540;2023-06-05T04:59:12;100848.72;;;11.02;73.02
16190;BME280;41754;51.498;7.540;2023-06-05T05:01:40;100850.34;;;11.19;72.37
16190;BME280;41754;51.498;7.540;2023-06-05T05:04:08;100849.91;;;11.27;72.15
16190;BME280;41754;51.498;7.540;2023-06-05T05:06:39;100851.06;;;11.37;72.19
16190;BME280;41754;51.498;7.540;2023-06-05T05:09:08;100852.41;;;11.59;72.43
16190;BME280;41754;51.498;7.540;2023-06-05T05:11:37;100853.63;;;11.67;71.73
16190;BME280;41754;51.498;7.540;2023-06-05T05:14:05;100860.50;;;11.56;71.05
16190;BME280;41754;51.498;7.540;2023-06-05T05:16:33;100853.59;;;11.39;70.91
16190;BME280;41754;51.498;7.540;2023-06-05T05:19:04;100855.97;;;11.43;71.12
16190;BME280;41754;51.498;7.540;2023-06-05T05:21:33;100859.34;;;11.45;70.63
16190;BME280;41754;51.498;7.540;2023-06-05T05:24:02;100853.16;;;11.46;70.79
16190;BME280;41754;51.498;7.540;2023-06-05T05:26:30;100856.94;;;11.57;70.72
16190;BME280;41754;51.498;7.540;2023-06-05T05:29:00;100846.38;;;11.57;70.49
16190;BME280;41754;51.498;7.540;2023-06-05T05:31:27;100855.06;;;11.73;70.19
16190;BME280;41754;51.498;7.540;2023-06-05T05:33:56;100848.59;;;11.93;70.27
16190;BME280;41754;51.498;7.540;2023-06-05T05:36:25;100851.47;;;11.88;69.61
16190;BME280;41754;51.498;7.540;2023-06-05T05:38:53;100853.81;;;11.79;69.13
16190;BME280;41754;51.498;7.540;2023-06-05T05:41:21;100859.28;;;11.90;69.79
16190;BME280;41754;51.498;7.540;2023-06-05T05:43:48;100855.34;;;11.97;69.25
16190;BME280;41754;51.498;7.540;2023-06-05T05:46:18;100857.53;;;12.05;68.74
16190;BME280;41754;51.498;7.540;2023-06-05T05:48:46;100867.78;;;12.10;68.74
16190;BME280;41754;51.498;7.540;2023-06-05T05:51:13;100861.34;;;12.28;68.78
16190;BME280;41754;51.498;7.540;2023-06-05T05:53:42;100858.50;;;12.46;68.11
16190;BME280;41754;51.498;7.540;2023-06-05T05:56:10;100857.78;;;12.56;67.62
16190;BME280;41754;51.498;7.540;2023-06-05T05:58:37;100853.16;;;12.60;67.24
16190;BME280;41754;51.498;7.540;2023-06-05T06:01:05;100854.91;;;12.74;66.87
16190;BME280;41754;51.498;7.540;2023-06-05T06:03:35;100850.31;;;12.90;66.75
16190;BME280;41754;51.498;7.540;2023-06-05T06:06:04;100851.19;;;13.04;66.28
16190;BME280;41754;51.498;7.540;2023-06-05T06:08:33;100851.81;;;12.94;65.80
16190;BME280;41754;51.498;7.540;2023-06-05T06:11:01;100847.59;;;13.05;65.46
16190;BME280;41754;51.498;7.540;2023-06-05T06:13:33;100855.66;;;13.16;65.78
16190;BME280;41754;51.498;7.540;2023-06-05T06:16:02;100857.84;;;13.36;65.27
16190;BME280;41754;51.498;7.540;2023-06-05T06:18:30;100860.94;;;13.29;65.53
16190;BME280;41754;51.498;7.540;2023-06-05T06:21:00;100864.19;;;13.47;65.26
16190;BME280;41754;51.498;7.540;2023-06-05T06:23:28;100867.13;;;13.42;65.12
16190;BME280;41754;51.498;7.540;2023-06-05T06:25:56;100864.41;;;13.57;64.67
16190;BME280;41754;51.498;7.540;2023-06-05T06:28:24;100861.22;;;13.77;64.00
16190;BME280;41754;51.498;7.540;2023-06-05T06:30:52;100858.47;;;13.91;63.21
16190;BME280;41754;51.498;7.540;2023-06-05T06:33:20;100869.25;;;14.01;62.86
16190;BME280;41754;51.498;7.540;2023-06-05T06:35:49;100866.09;;;13.96;63.46
16190;BME280;41754;51.498;7.540;2023-06-05T06:38:19;100868.91;;;14.19;63.37
16190;BME280;41754;51.498;7.540;2023-06-05T06:40:47;100871.09;;;14.25;62.35
16190;BME280;41754;51.498;7.540;2023-06-05T06:43:15;100865.34;;;14.31;62.49
16190;BME280;41754;51.498;7.540;2023-06-05T06:45:49;100863.28;;;14.23;62.02
16190;BME280;41754;51.498;7.540;2023-06-05T06:48:17;100866.00;;;14.35;61.88
16190;BME280;41754;51.498;7.540;2023-06-05T06:50:45;100870.41;;;14.47;61.67
16190;BME280;41754;51.498;7.540;2023-06-05T06:53:13;100873.56;;;14.65;61.38
16190;BME280;41754;51.498;7.540;2023-06-05T06:55:43;100882.41;;;14.77;60.91
16190;BME280;41754;51.498;7.540;2023-06-05T06:58:11;100875.59;;;14.86;59.93
16190;BME280;41754;51.498;7.540;2023-06-05T07:00:39;100880.03;;;14.85;60.65
16190;BME280;41754;51.498;7.540;2023-06-05T07:03:07;100869.63;;;14.95;60.03
16190;BME280;41754;51.498;7.540;2023-06-05T07:05:35;100872.44;;;15.16;60.25
16190;BME280;41754;51.498;7.540;2023-06-05T07:08:04;100875.56;;;15.45;58.74
16190;BME280;41754;51.498;7.540;2023-06-05T07:10:32;100876.03;;;15.62;58.45
16190;BME280;41754;51.498;7.540;2023-06-05T07:13:01;100872.53;;;15.38;58.12
16190;BME280;41754;51.498;7.540;2023-06-05T07:15:29;100870.75;;;15.50;58.89
16190;BME280;41754;51.498;7.540;2023-06-05T07:17:57;100873.13;;;15.42;59.31
16190;BME280;41754;51.498;7.540;2023-06-05T07:20:25;100869.75;;;15.40;58.13
16190;BME280;41754;51.498;7.540;2023-06-05T07:22:52;100880.38;;;15.40;58.59
16190;BME280;41754;51.498;7.540;2023-06-05T07:25:20;100870.97;;;15.47;58.27
16190;BME280;41754;51.498;7.540;2023-06-05T07:27:51;100873.50;;;15.49;58.88
16190;BME280;41754;51.498;7.540;2023-06-05T07:30:20;100876.19;;;15.71;58.22
16190;BME280;41754;51.498;7.540;2023-06-05T07:32:48;100875.50;;;15.81;57.98
16190;BME280;41754;51.498;7.540;2023-06-05T07:35:16;100875.13;;;15.85;57.17
16190;BME280;41754;51.498;7.540;2023-06-05T07:37:44;100876.84;;;15.86;57.48
16190;BME280;41754;51.498;7.540;2023-06-05T07:40:12;100877.56;;;16.00;57.97
16190;BME280;41754;51.498;7.540;2023-06-05T07:42:40;100873.31;;;16.20;57.36
16190;BME280;41754;51.498;7.540;2023-06-05T07:45:08;100871.16;;;16.25;56.89
16190;BME280;41754;51.498;7.540;2023-06-05T07:47:38;100858.66;;;16.59;56.53
16190;BME280;41754;51.498;7.540;2023-06-05T07:50:07;100861.72;;;16.87;56.29
16190;BME280;41754;51.498;7.540;2023-06-05T07:52:35;100856.75;;;16.94;56.11
16190;BME280;41754;51.498;7.540;2023-06-05T07:55:04;100854.66;;;16.97;55.16
16190;BME280;41754;51.498;7.540;2023-06-05T07:57:33;100858.84;;;17.11;54.77
16190;BME280;41754;51.498;7.540;2023-06-05T08:00:01;100861.88;;;17.06;54.86
16190;BME280;41754;51.498;7.540;2023-06-05T08:02:39;100861.28;;;17.24;54.99
16190;BME280;41754;51.498;7.540;2023-06-05T08:05:08;100860.25;;;17.57;53.75
16190;BME280;41754;51.498;7.540;2023-06-05T08:07:36;100860.00;;;17.60;52.97
16190;BME280;41754;51.498;7.540;2023-06-05T08:10:06;100865.75;;;17.87;52.11
16190;BME280;41754;51.498;7.540;2023-06-05T08:12:34;100860.81;;;17.82;52.08
16190;BME280;41754;51.498;7.540;2023-06-05T08:15:02;100863.22;;;17.64;53.53
16190;BME280;41754;51.498;7.540;2023-06-05T08:17:30;100859.06;;;17.92;52.47
16190;BME280;41754;51.498;7.540;2023-06-05T08:19:59;100865.59;;;18.19;51.68
16190;BME280;41754;51.498;7.540;2023-06-05T08:22:27;100863.19;;;18.16;53.01
16190;BME280;41754;51.498;7.540;2023-06-05T08:24:56;100850.38;;;17.90;52.56
16190;BME280;41754;51.498;7.540;2023-06-05T08:27:26;100852.41;;;18.17;50.86
16190;BME280;41754;51.498;7.540;2023-06-05T08:29:54;100857.81;;;18.37;50.51
16190;BME280;41754;51.498;7.540;2023-06-05T08:32:21;100854.94;;;18.19;49.81
16190;BME280;41754;51.498;7.540;2023-06-05T08:34:49;100850.47;;;18.29;50.26
16190;BME280;41754;51.498;7.540;2023-06-05T08:37:19;100855.31;;;18.65;49.33
16190;BME280;41754;51.498;7.540;2023-06-05T08:39:46;100850.81;;;18.75;49.57
16190;BME280;41754;51.498;7.540;2023-06-05T08:42:15;100847.78;;;18.89;49.74
16190;BME280;41754;51.498;7.540;2023-06-05T08:44:46;100846.06;;;19.37;49.20
16190;BME280;41754;51.498;7.540;2023-06-05T08:47:29;100849.16;;;19.33;48.16
16190;BME280;41754;51.498;7.540;2023-06-05T08:50:02;100849.28;;;19.31;47.93
16190;BME280;41754;51.498;7.540;2023-06-05T08:52:33;100849.84;;;19.15;47.97
16190;BME280;41754;51.498;7.540;2023-06-05T08:55:03;100847.97;;;19.45;49.00
16190;BME280;41754;51.498;7.540;2023-06-05T08:57:31;100845.34;;;19.25;47.81
16190;BME280;41754;51.498;7.540;2023-06-05T09:00:01;100838.22;;;19.16;48.26
16190;BME280;41754;51.498;7.540;2023-06-05T09:02:33;100841.03;;;19.15;48.15
16190;BME280;41754;51.498;7.540;2023-06-05T09:05:04;100836.47;;;19.44;48.56
16190;BME280;41754;51.498;7.540;2023-06-05T09:07:34;100838.22;;;19.83;45.63
16190;BME280;41754;51.498;7.540;2023-06-05T09:10:04;100833.34;;;19.59;46.20
16190;BME280;41754;51.498;7.540;2023-06-05T09:12:32;100837.19;;;19.84;46.22
16190;BME280;41754;51.498;7.540;2023-06-05T09:15:23;100832.06;;;20.00;46.67
16190;BME280;41754;51.498;7.540;2023-06-05T09:18:05;100829.81;;;20.51;44.13
16190;BME280;41754;51.498;7.540;2023-06-05T09:20:36;100835.59;;;20.47;43.81
16190;BME280;41754;51.498;7.540;2023-06-05T09:23:23;100835.63;;;20.19;44.05
16190;BME280;41754;51.498;7.540;2023-06-05T09:25:56;100828.47;;;20.37;44.77
16190;BME280;41754;51.498;7.540;2023-06-05T09:28:26;100826.31;;;20.69;43.86
16190;BME280;41754;51.498;7.540;2023-06-05T09:30:58;100828.69;;;20.90;43.22
16190;BME280;41754;51.498;7.540;2023-06-05T09:33:27;100821.00;;;20.59;42.55
16190;BME280;41754;51.498;7.540;2023-06-05T09:36:06;100823.66;;;20.87;41.33
16190;BME280;41754;51.498;7.540;2023-06-05T09:38:37;100817.91;;;21.26;41.25
16190;BME280;41754;51.498;7.540;2023-06-05T09:41:06;100814.31;;;21.35;43.16
16190;BME280;41754;51.498;7.540;2023-06-05T09:43:35;100818.41;;;21.47;42.20
16190;BME280;41754;51.498;7.540;2023-06-05T09:46:07;100818.97;;;21.07;43.25
16190;BME280;41754;51.498;7.540;2023-06-05T09:48:37;100817.28;;;21.32;42.02
16190;BME280;41754;51.498;7.540;2023-06-05T09:51:09;100819.66;;;21.35;41.33
16190;BME280;41754;51.498;7.540;2023-06-05T09:53:44;100810.66;;;21.18;40.84
16190;BME280;41754;51.498;7.540;2023-06-05T09:56:14;100814.69;;;21.40;42.94
16190;BME280;41754;51.498;7.540;2023-06-05T09:58:44;100816.88;;;21.71;42.29
16190;BME280;41754;51.498;7.540;2023-06-05T10:01:15;100812.38;;;21.80;40.08
16190;BME280;41754;51.498;7.540;2023-06-05T10:03:47;100811.75;;;21.52;38.95
16190;BME280;41754;51.498;7.540;2023-06-05T10:06:16;100809.91;;;21.86;39.67
16190;BME280;41754;51.498;7.540;2023-06-05T10:08:51;100809.75;;;21.88;39.86
16190;BME280;41754;51.498;7.540;2023-06-05T10:11:23;100800.03;;;22.38;40.07
16190;BME280;41754;51.498;7.540;2023-06-05T10:13:52;100799.38;;;22.36;41.50
16190;BME280;41754;51.498;7.540;2023-06-05T10:16:20;100806.06;;;22.40;39.46
16190;BME280;41754;51.498;7.540;2023-06-05T10:18:53;100799.38;;;22.36;40.05
16190;BME280;41754;51.498;7.540;2023-06-05T10:21:23;100801.34;;;22.34;41.49
16190;BME280;41754;51.498;7.540;2023-06-05T10:23:56;100795.69;;;22.53;38.82
16190;BME280;41754;51.498;7.540;2023-06-05T10:26:46;100786.66;;;22.54;38.40
16190;BME280;41754;51.498;7.540;2023-06-05T10:29:41;100788.66;;;22.85;40.61
16190;BME280;41754;51.498;7.540;2023-06-05T10:32:16;100785.13;;;23.18;38.34
16190;BME280;41754;51.498;7.540;2023-06-05T10:34:53;100780.94;;;23.23;41.30
16190;BME280;41754;51.498;7.540;2023-06-05T10:37:43;100791.28;;;23.51;37.65
16190;BME280;41754;51.498;7.540;2023-06-05T10:40:17;100790.53;;;24.13;38.75
16190;BME280;41754;51.498;7.540;2023-06-05T10:42:46;100778.66;;;23.60;35.94
16190;BME280;41754;51.498;7.540;2023-06-05T10:45:29;100784.81;;;23.85;35.79
16190;BME280;41754;51.498;7.540;2023-06-05T10:47:57;100782.09;;;23.93;34.10
16190;BME280;41754;51.498;7.540;2023-06-05T10:50:27;100775.63;;;23.63;33.64
16190;BME280;41754;51.498;7.540;2023-06-05T10:52:57;100783.13;;;23.76;34.29
16190;BME280;41754;51.498;7.540;2023-06-05T10:55:41;100780.97;;;23.71;34.84
16190;BME280;41754;51.498;7.540;2023-06-05T10:58:11;100774.53;;;24.43;35.25
16190;BME280;41754;51.498;7.540;2023-06-05T11:03:57;100778.50;;;25.76;31.80
16190;BME280;41754;51.498;7.540;2023-06-05T11:06:26;100772.31;;;26.12;34.24
16190;BME280;41754;51.498;7.540;2023-06-05T11:09:11;100771.63;;;25.29;30.45
16190;BME280;41754;51.498;7.540;2023-06-05T11:12:01;100767.38;;;25.79;32.21
16190;BME280;41754;51.498;7.540;2023-06-05T11:14:45;100767.56;;;26.36;29.61
16190;BME280;41754;51.498;7.540;2023-06-05T11:17:26;100759.72;;;26.62;28.21
16190;BME280;41754;51.498;7.540;2023-06-05T11:19:55;100763.09;;;26.64;27.92
16190;BME280;41754;51.498;7.540;2023-06-05T11:22:23;100757.59;;;26.58;28.53
16190;BME280;41754;51.498;7.540;2023-06-05T11:25:26;100749.72;;;26.56;28.92
16190;BME280;41754;51.498;7.540;2023-06-05T11:27:57;100754.63;;;27.59;26.24
16190;BME280;41754;51.498;7.540;2023-06-05T11:30:28;100749.72;;;27.34;25.66
16190;BME280;41754;51.498;7.540;2023-06-05T11:33:15;100752.72;;;27.53;25.91
16190;BME280;41754;51.498;7.540;2023-06-05T11:35:45;100753.59;;;27.25;26.11
16190;BME280;41754;51.498;7.540;2023-06-05T11:38:15;100746.09;;;26.92;28.73
16190;BME280;41754;51.498;7.540;2023-06-05T11:40:47;100749.22;;;27.59;27.88
16190;BME280;41754;51.498;7.540;2023-06-05T11:43:16;100750.31;;;27.30;25.53
16190;BME280;41754;51.498;7.540;2023-06-05T11:45:49;100747.75;;;27.63;28.24
16190;BME280;41754;51.498;7.540;2023-06-05T11:48:17;100749.09;;;27.81;25.68
16190;BME280;41754;51.498;7.540;2023-06-05T11:50:53;100746.09;;;28.30;23.12
16190;BME280;41754;51.498;7.540;2023-06-05T11:53:22;100736.59;;;28.68;23.81
16190;BME280;41754;51.498;7.540;2023-06-05T11:55:51;100737.13;;;29.37;25.18
16190;BME280;41754;51.498;7.540;2023-06-05T11:58:35;100744.69;;;29.21;23.28
16190;BME280;41754;51.498;7.540;2023-06-05T12:01:05;100720.72;;;28.98;24.69
16190;BME280;41754;51.498;7.540;2023-06-05T12:03:33;100730.94;;;29.10;22.80
16190;BME280;41754;51.498;7.540;2023-06-05T12:06:03;100727.16;;;29.04;23.39
16190;BME280;41754;51.498;7.540;2023-06-05T12:08:32;100730.53;;;29.19;22.01
16190;BME280;41754;51.498;7.540;2023-06-05T12:11:02;100727.84;;;28.93;21.72
16190;BME280;41754;51.498;7.540;2023-06-05T12:13:48;100730.69;;;29.31;21.39
16190;BME280;41754;51.498;7.540;2023-06-05T12:16:17;100718.19;;;29.10;23.33
16190;BME280;41754;51.498;7.540;2023-06-05T12:18:46;100721.75;;;29.69;22.43
16190;BME280;41754;51.498;7.540;2023-06-05T12:21:31;100713.25;;;29.59;20.95
16190;BME280;41754;51.498;7.540;2023-06-05T12:24:04;100707.94;;;29.39;20.37
16190;BME280;41754;51.498;7.540;2023-06-05T12:26:47;100708.16;;;30.46;20.37
16190;BME280;41754;51.498;7.540;2023-06-05T12:29:20;100710.06;;;30.71;19.47
16190;BME280;41754;51.498;7.540;2023-06-05T12:31:49;100698.78;;;30.17;19.09
16190;BME280;41754;51.498;7.540;2023-06-05T12:34:18;100697.16;;;30.09;19.09
16190;BME280;41754;51.498;7.540;2023-06-05T12:36:46;100694.16;;;30.18;19.15
16190;BME280;41754;51.498;7.540;2023-06-05T12:39:15;100700.06;;;30.65;19.05
16190;BME280;41754;51.498;7.540;2023-06-05T12:41:43;100697.97;;;30.67;18.55
16190;BME280;41754;51.498;7.540;2023-06-05T12:44:11;100702.63;;;30.60;19.69
16190;BME280;41754;51.498;7.540;2023-06-05T12:46:41;100693.88;;;31.01;19.59
16190;BME280;41754;51.498;7.540;2023-06-05T12:49:09;100699.75;;;30.55;19.04
16190;BME280;41754;51.498;7.540;2023-06-05T12:51:38;100698.31;;;30.77;19.39
16190;BME280;41754;51.498;7.540;2023-06-05T12:54:06;100685.88;;;30.63;19.28
16190;BME280;41754;51.498;7.540;2023-06-05T12:56:34;100691.78;;;31.03;17.38
16190;BME280;41754;51.498;7.540;2023-06-05T12:59:02;100680.63;;;30.86;16.26
16190;BME280;41754;51.498;7.540;2023-06-05T13:01:30;100688.91;;;31.54;18.09
16190;BME280;41754;51.498;7.540;2023-06-05T13:04:00;100691.25;;;31.80;18.56
16190;BME280;41754;51.498;7.540;2023-06-05T13:06:28;100689.53;;;31.56;16.76
16190;BME280;41754;51.498;7.540;2023-06-05T13:08:55;100690.38;;;31.68;16.91
16190;BME280;41754;51.498;7.540;2023-06-05T13:11:23;100677.66;;;31.32;19.51